createdAt,value
2019-04-22T00:01:31.235Z,27.77
2019-04-22T00:04:04.836Z,31.40
2019-04-22T00:06:49.728Z,27.90
2019-04-22T00:09:27.073Z,28.00
2019-04-22T00:12:00.371Z,30.20
2019-04-22T00:14:26.786Z,28.10
2019-04-22T00:17:00.744Z,28.33
2019-04-22T00:19:32.008Z,27.73
2019-04-22T00:22:02.846Z,32.20
2019-04-22T00:24:24.506Z,31.17
2019-04-22T00:26:59.568Z,31.23
2019-04-22T00:29:49.378Z,30.20
2019-04-22T00:32:05.501Z,31.30
2019-04-22T00:34:35.929Z,30.63
2019-04-22T00:37:10.938Z,29.30
2019-04-22T00:39:41.132Z,32.17
2019-04-22T00:42:07.769Z,32.07
2019-04-22T00:47:21.440Z,31.27
2019-04-22T00:52:17.711Z,34.37
2019-04-22T00:54:49.584Z,31.80
2019-04-22T00:57:15.376Z,34.33
2019-04-22T00:59:47.942Z,33.00
2019-04-22T01:02:22.897Z,32.43
2019-04-22T01:04:49.457Z,31.90
2019-04-22T01:07:17.675Z,40.73
2019-04-22T01:09:53.631Z,30.70
2019-04-22T01:12:24.191Z,32.73
2019-04-22T01:14:49.600Z,33.90
2019-04-22T01:17:22.476Z,33.77
2019-04-22T01:20:01.100Z,32.10
2019-04-22T01:22:17.631Z,33.97
2019-04-22T01:24:46.650Z,32.57
2019-04-22T01:27:13.230Z,33.47
2019-04-22T01:29:41.214Z,32.83
2019-04-22T01:32:00.364Z,33.03
2019-04-22T01:34:46.061Z,34.47
2019-04-22T01:37:20.220Z,35.30
2019-04-22T01:39:59.020Z,30.73
2019-04-22T01:42:29.870Z,33.03
2019-04-22T01:44:56.765Z,32.80
2019-04-22T01:47:32.805Z,31.07
2019-04-22T01:50:04.705Z,31.07
2019-04-22T01:52:29.652Z,30.60
2019-04-22T01:55:04.301Z,32.93
2019-04-22T01:57:32.027Z,39.10
2019-04-22T01:59:58.721Z,33.43
2019-04-22T02:02:40.020Z,33.80
2019-04-22T02:05:10.624Z,32.30
2019-04-22T02:07:34.049Z,34.47
2019-04-22T02:10:02.272Z,31.10
2019-04-22T02:12:33.657Z,28.87
2019-04-22T02:15:07.902Z,28.33
2019-04-22T02:17:37.224Z,33.47
2019-04-22T02:23:00.527Z,32.03
2019-04-22T02:25:18.628Z,33.13
2019-04-22T02:27:47.146Z,34.30
2019-04-22T02:30:13.804Z,38.00
2019-04-22T02:33:22.368Z,32.10
2019-04-22T02:35:36.631Z,30.77
2019-04-22T02:37:55.029Z,33.00
2019-04-22T02:40:38.114Z,33.90
2019-04-22T02:43:08.615Z,29.13
2019-04-22T02:45:26.633Z,26.10
2019-04-22T02:47:59.129Z,25.67
2019-04-22T02:50:16.083Z,26.37
2019-04-22T02:52:50.435Z,25.40
2019-04-22T02:55:23.512Z,25.60
2019-04-22T02:57:55.073Z,26.83
2019-04-22T03:00:35.794Z,25.50
2019-04-22T03:03:10.706Z,24.50
2019-04-22T03:05:37.073Z,35.80
2019-04-22T03:08:09.915Z,24.40
2019-04-22T03:10:37.948Z,23.17
2019-04-22T03:13:00.440Z,23.07
2019-04-22T03:15:30.521Z,23.00
2019-04-22T03:18:19.509Z,26.73
2019-04-22T03:20:33.514Z,30.07
2019-04-22T03:23:17.278Z,31.40
2019-04-22T03:28:06.483Z,25.87
2019-04-22T03:38:37.911Z,23.97
2019-04-22T03:45:30.209Z,22.13
2019-04-22T03:50:57.595Z,23.40
2019-04-22T03:58:32.369Z,22.07
2019-04-22T04:03:11.731Z,26.07
2019-04-22T04:08:22.318Z,23.50
2019-04-22T04:15:38.409Z,23.30
2019-04-22T04:18:39.569Z,22.60
2019-04-22T04:26:04.381Z,22.07
2019-04-22T04:30:45.987Z,21.80
2019-04-22T04:33:24.928Z,22.30
2019-04-22T04:36:01.944Z,23.13
2019-04-22T04:38:21.132Z,22.00
2019-04-22T04:40:51.267Z,20.10
2019-04-22T04:43:33.381Z,23.17
2019-04-22T04:45:55.216Z,24.40
2019-04-22T04:48:34.453Z,22.47
2019-04-22T04:51:11.841Z,21.23
2019-04-22T04:55:53.627Z,18.90
2019-04-22T04:58:46.599Z,18.70
2019-04-22T05:01:07.542Z,19.70
2019-04-22T05:06:10.651Z,18.50
2019-04-22T05:08:54.424Z,18.47
2019-04-22T05:11:05.655Z,16.37
2019-04-22T05:13:44.858Z,15.97
2019-04-22T05:16:17.339Z,16.50
2019-04-22T05:18:37.710Z,15.10
2019-04-22T05:21:14.550Z,13.93
2019-04-22T05:23:38.822Z,15.53
2019-04-22T05:26:05.866Z,14.50
2019-04-22T05:28:33.458Z,16.67
2019-04-22T05:31:09.761Z,13.77
2019-04-22T05:33:34.871Z,18.07
2019-04-22T05:36:07.458Z,15.93
2019-04-22T05:38:39.987Z,14.33
2019-04-22T05:41:04.309Z,19.60
2019-04-22T05:43:38.623Z,15.23
2019-04-22T05:46:05.740Z,20.57
2019-04-22T05:48:38.084Z,15.70
2019-04-22T05:51:29.419Z,15.73
2019-04-22T05:53:40.476Z,13.37
2019-04-22T05:56:12.292Z,14.63
2019-04-22T05:58:46.407Z,14.90
2019-04-22T06:03:49.347Z,15.50
2019-04-22T06:06:16.335Z,14.93
2019-04-22T06:08:48.817Z,16.00
2019-04-22T06:11:24.453Z,13.13
2019-04-22T06:13:38.948Z,14.17
2019-04-22T06:16:18.282Z,17.10
2019-04-22T06:19:01.812Z,18.60
2019-04-22T06:21:27.422Z,18.73
2019-04-22T06:23:54.484Z,19.10
2019-04-22T06:26:35.767Z,74.53
2019-04-22T06:28:54.659Z,19.00
2019-04-22T06:31:38.664Z,21.10
2019-04-22T06:36:30.894Z,18.13
2019-04-22T06:38:51.368Z,17.80
2019-04-22T06:41:27.371Z,20.33
2019-04-22T06:43:58.379Z,26.00
2019-04-22T06:46:29.887Z,16.10
2019-04-22T06:49:03.619Z,17.50
2019-04-22T06:51:32.918Z,15.90
2019-04-22T06:54:01.772Z,15.33
2019-04-22T06:56:27.810Z,15.23
2019-04-22T06:58:58.001Z,12.37
2019-04-22T07:01:40.443Z,10.93
2019-04-22T07:06:35.753Z,10.37
2019-04-22T07:09:25.196Z,7.90
2019-04-22T07:11:30.731Z,14.10
2019-04-22T07:16:37.861Z,13.63
2019-04-22T07:19:20.538Z,7.70
2019-04-22T07:21:37.313Z,7.43
2019-04-22T07:24:21.183Z,9.30
2019-04-22T07:26:36.223Z,6.63
2019-04-22T07:29:10.429Z,7.20
2019-04-22T07:31:34.415Z,7.93
2019-04-22T07:34:15.989Z,7.40
2019-04-22T07:39:10.567Z,7.67
2019-04-22T07:41:38.422Z,6.93
2019-04-22T07:44:16.612Z,7.23
2019-04-22T07:46:41.941Z,7.47
2019-04-22T07:49:14.749Z,9.70
2019-04-22T07:54:16.285Z,14.73
2019-04-22T07:56:43.845Z,6.23
2019-04-22T07:59:15.293Z,7.93
2019-04-22T08:01:42.353Z,8.43
2019-04-22T08:04:23.735Z,7.30
2019-04-22T08:09:24.572Z,6.73
2019-04-22T08:14:14.408Z,6.17
2019-04-22T08:16:51.846Z,8.90
2019-04-22T08:19:20.389Z,10.03
2019-04-22T08:21:47.360Z,7.70
2019-04-22T08:24:14.702Z,7.37
2019-04-22T08:29:19.120Z,6.60
2019-04-22T08:31:59.209Z,9.20
2019-04-22T08:34:20.827Z,7.20
2019-04-22T08:37:16.310Z,6.27
2019-04-22T08:39:21.757Z,8.60
2019-04-22T08:41:52.039Z,7.13
2019-04-22T08:44:40.240Z,6.90
2019-04-22T08:46:57.721Z,6.43
2019-04-22T08:49:22.765Z,11.77
2019-04-22T08:52:16.310Z,7.20
2019-04-22T08:54:43.732Z,7.83
2019-04-22T08:57:18.267Z,7.17
2019-04-22T08:59:45.708Z,7.77
2019-04-22T09:02:20.205Z,7.33
2019-04-22T09:04:45.447Z,6.80
2019-04-22T09:09:55.308Z,5.83
2019-04-22T09:12:23.728Z,7.37
2019-04-22T09:14:45.614Z,5.90
2019-04-22T09:17:24.513Z,6.30
2019-04-22T09:19:48.139Z,6.87
2019-04-22T09:22:20.108Z,6.97
2019-04-22T09:24:48.912Z,6.17
2019-04-22T09:27:26.560Z,8.53
2019-04-22T09:29:50.351Z,8.33
2019-04-22T09:32:31.758Z,6.53
2019-04-22T09:34:51.240Z,11.20
2019-04-22T09:37:26.862Z,6.30
2019-04-22T09:40:02.817Z,5.53
2019-04-22T09:42:27.360Z,6.53
2019-04-22T09:47:30.733Z,6.10
2019-04-22T09:52:20.669Z,6.70
2019-04-22T09:55:00.168Z,5.60
2019-04-22T09:57:29.522Z,7.77
2019-04-22T10:05:00.522Z,6.93
2019-04-22T10:07:27.226Z,5.70
2019-04-22T10:10:03.414Z,5.20
2019-04-22T10:12:31.584Z,7.60
2019-04-22T10:14:55.818Z,5.97
2019-04-22T10:17:26.094Z,5.83
2019-04-22T10:20:01.110Z,8.10
2019-04-22T10:22:35.500Z,6.37
2019-04-22T10:25:01.885Z,5.67
2019-04-22T10:27:26.181Z,5.27
2019-04-22T10:29:59.798Z,6.90
2019-04-22T10:32:31.936Z,10.00
2019-04-22T10:35:02.423Z,7.33
2019-04-22T10:37:25.648Z,10.00
2019-04-22T10:39:59.279Z,6.33
2019-04-22T10:42:25.234Z,5.70
2019-04-22T10:44:55.464Z,5.60
2019-04-22T10:47:25.730Z,5.10
2019-04-22T10:49:54.630Z,6.27
2019-04-22T10:52:23.721Z,5.33
2019-04-22T10:54:53.595Z,5.90
2019-04-22T10:57:22.446Z,12.50
2019-04-22T10:59:52.312Z,5.83
2019-04-22T11:02:21.574Z,5.70
2019-04-22T11:04:50.452Z,6.13
2019-04-22T11:07:24.633Z,5.40
2019-04-22T11:09:58.974Z,5.20
2019-04-22T11:12:23.410Z,12.80
2019-04-22T11:14:51.786Z,5.30
2019-04-22T11:17:21.771Z,6.53
2019-04-22T11:19:51.241Z,5.00
2019-04-22T11:22:25.485Z,5.23
2019-04-22T11:24:50.807Z,4.73
2019-04-22T11:27:21.192Z,4.00
2019-04-22T11:29:50.944Z,5.17
2019-04-22T11:32:20.243Z,4.77
2019-04-22T11:34:49.517Z,4.60
2019-04-22T11:37:18.550Z,4.13
2019-04-22T11:40:00.269Z,5.67
2019-04-22T11:42:18.719Z,4.17
2019-04-22T11:44:47.633Z,4.70
2019-04-22T11:47:17.171Z,4.13
2019-04-22T11:49:46.127Z,4.33
2019-04-22T11:52:16.754Z,4.20
2019-04-22T11:54:46.702Z,5.03
2019-04-22T11:57:16.994Z,4.63
2019-04-22T11:59:47.004Z,5.30
2019-04-22T12:02:18.107Z,4.90
2019-04-22T12:04:48.116Z,5.10
2019-04-22T12:07:17.306Z,6.60
2019-04-22T12:09:46.034Z,8.83
2019-04-22T12:12:15.971Z,7.93
2019-04-22T12:14:45.870Z,5.40
2019-04-22T12:17:15.993Z,5.63
2019-04-22T12:19:46.364Z,10.60
2019-04-22T12:22:15.382Z,7.27
2019-04-22T12:24:44.242Z,4.80
2019-04-22T12:27:14.298Z,5.53
2019-04-22T12:29:44.783Z,7.80
2019-04-22T12:32:13.748Z,7.73
2019-04-22T12:34:43.679Z,10.70
2019-04-22T12:37:17.410Z,4.57
2019-04-22T12:39:43.538Z,5.47
2019-04-22T12:42:13.181Z,6.73
2019-04-22T12:44:43.807Z,6.43
2019-04-22T12:47:13.028Z,4.83
2019-04-22T12:49:42.523Z,4.57
2019-04-22T12:52:23.438Z,5.77
2019-04-22T12:54:44.624Z,4.40
2019-04-22T12:57:14.704Z,5.53
2019-04-22T12:59:43.821Z,6.53
2019-04-22T13:02:13.446Z,7.10
2019-04-22T13:04:42.211Z,4.70
2019-04-22T13:07:11.638Z,5.93
2019-04-22T13:09:41.262Z,4.30
2019-04-22T13:12:11.055Z,7.20
2019-04-22T13:14:41.021Z,4.30
2019-04-22T13:17:10.487Z,4.00
2019-04-22T13:19:40.421Z,4.40
2019-04-22T13:22:09.408Z,5.50
2019-04-22T13:24:39.609Z,4.83
2019-04-22T13:27:08.911Z,3.97
2019-04-22T13:29:39.029Z,5.83
2019-04-22T13:32:08.968Z,5.60
2019-04-22T13:34:45.229Z,3.60
2019-04-22T13:37:08.482Z,3.93
2019-04-22T13:39:37.224Z,4.17
2019-04-22T13:42:11.474Z,11.87
2019-04-22T13:44:37.722Z,4.00
2019-04-22T13:47:19.729Z,6.23
2019-04-22T13:50:06.062Z,4.10
2019-04-22T13:55:01.759Z,3.63
2019-04-22T13:57:24.866Z,4.17
2019-04-22T13:59:44.701Z,5.57
2019-04-22T14:02:26.807Z,3.50
2019-04-22T14:04:56.740Z,4.13
2019-04-22T14:07:25.722Z,3.87
2019-04-22T14:09:55.992Z,3.57
2019-04-22T14:12:24.759Z,4.37
2019-04-22T14:14:54.459Z,4.13
2019-04-22T14:17:25.001Z,4.60
2019-04-22T14:19:55.025Z,7.03
2019-04-22T14:22:23.928Z,3.50
2019-04-22T14:24:52.592Z,6.60
2019-04-22T14:27:30.702Z,3.37
2019-04-22T14:29:51.704Z,6.60
2019-04-22T14:32:27.021Z,3.70
2019-04-22T14:34:51.346Z,5.63
2019-04-22T14:37:20.353Z,3.13
2019-04-22T14:39:49.342Z,4.30
2019-04-22T14:42:36.105Z,6.13
2019-04-22T14:45:22.077Z,3.33
2019-04-22T14:47:49.534Z,3.67
2019-04-22T14:50:14.055Z,3.20
2019-04-22T14:52:49.145Z,3.00
2019-04-22T14:55:03.877Z,2.40
2019-04-22T14:57:27.670Z,4.40
2019-04-22T14:59:55.778Z,2.57
2019-04-22T15:02:25.577Z,2.53
2019-04-22T15:04:54.559Z,3.30
2019-04-22T15:07:23.366Z,2.47
2019-04-22T15:09:52.298Z,6.40
2019-04-22T15:12:31.003Z,3.27
2019-04-22T15:14:53.406Z,2.17
2019-04-22T15:17:27.087Z,5.23
2019-04-22T15:20:01.496Z,3.13
2019-04-22T15:22:30.825Z,3.70
2019-04-22T15:25:19.122Z,11.57
2019-04-22T15:27:47.887Z,2.80
2019-04-22T15:30:17.206Z,3.57
2019-04-22T15:32:47.403Z,2.70
2019-04-22T15:35:17.517Z,3.17
2019-04-22T15:37:46.408Z,6.00
2019-04-22T15:40:16.564Z,2.87
2019-04-22T15:42:46.966Z,3.00
2019-04-22T15:45:16.870Z,3.47
2019-04-22T15:47:48.135Z,9.50
2019-04-22T15:50:19.007Z,2.93
2019-04-22T15:52:51.600Z,2.30
2019-04-22T15:55:18.725Z,4.53
2019-04-22T15:57:47.957Z,4.73
2019-04-22T16:00:29.425Z,4.20
2019-04-22T16:02:47.821Z,7.00
2019-04-22T16:05:17.102Z,2.83
2019-04-22T16:07:46.040Z,5.50
2019-04-22T16:10:15.784Z,4.90
2019-04-22T16:12:56.256Z,2.83
2019-04-22T16:15:16.198Z,3.67
2019-04-22T16:17:46.603Z,3.23
2019-04-22T16:20:17.211Z,2.80
2019-04-22T16:23:05.815Z,2.43
2019-04-22T16:25:55.363Z,4.10
2019-04-22T16:28:25.322Z,3.87
2019-04-22T16:30:55.341Z,2.37
2019-04-22T16:33:25.554Z,5.47
2019-04-22T16:35:55.080Z,2.57
2019-04-22T16:38:24.768Z,3.17
2019-04-22T16:40:54.732Z,4.40
2019-04-22T16:43:24.687Z,2.73
2019-04-22T16:45:53.858Z,3.63
2019-04-22T16:48:22.988Z,2.93
2019-04-22T16:50:52.812Z,2.87
2019-04-22T16:53:23.202Z,2.80
2019-04-22T16:55:52.947Z,2.60
2019-04-22T16:58:23.174Z,3.20
2019-04-22T17:00:52.483Z,2.40
2019-04-22T17:03:40.553Z,3.17
2019-04-22T17:06:17.405Z,3.10
2019-04-22T17:08:46.705Z,3.17
2019-04-22T17:11:16.020Z,2.73
2019-04-22T17:13:46.099Z,5.27
2019-04-22T17:16:16.008Z,4.10
2019-04-22T17:18:45.571Z,3.00
2019-04-22T17:21:15.560Z,2.50
2019-04-22T17:23:45.572Z,2.57
2019-04-22T17:26:14.805Z,3.87
2019-04-22T17:28:43.945Z,3.47
2019-04-22T17:31:13.118Z,3.07
2019-04-22T17:33:41.930Z,6.83
2019-04-22T17:36:12.016Z,3.80
2019-04-22T17:38:52.008Z,5.13
2019-04-22T17:41:24.794Z,3.23
2019-04-22T17:44:06.891Z,3.27
2019-04-22T17:46:41.990Z,3.60
2019-04-22T17:49:41.860Z,6.90
2019-04-22T17:52:24.642Z,3.30
2019-04-22T17:54:50.145Z,3.10
2019-04-22T17:57:22.474Z,2.80
2019-04-22T17:59:50.459Z,3.47
2019-04-22T18:02:22.137Z,5.70
2019-04-22T18:04:39.457Z,3.70
2019-04-22T18:07:45.793Z,3.60
2019-04-22T18:10:24.241Z,3.80
2019-04-22T18:12:37.073Z,3.70
2019-04-22T18:15:04.359Z,3.70
2019-04-22T18:17:35.573Z,3.10
2019-04-22T18:19:59.484Z,3.50
2019-04-22T18:22:21.936Z,3.53
2019-04-22T18:25:12.992Z,3.90
2019-04-22T18:27:55.159Z,2.90
2019-04-22T18:30:34.657Z,2.90
2019-04-22T18:33:16.111Z,3.30
2019-04-22T18:35:41.454Z,2.93
2019-04-22T18:38:28.052Z,4.33
2019-04-22T18:40:49.218Z,4.78
2019-04-22T18:43:26.229Z,3.10
2019-04-22T18:45:55.041Z,2.80
2019-04-22T18:48:12.731Z,3.83
2019-04-22T18:51:13.221Z,2.80
2019-04-22T18:53:56.943Z,2.60
2019-04-22T18:56:19.534Z,3.13
2019-04-22T18:58:44.914Z,4.63
2019-04-22T19:01:05.938Z,3.50
2019-04-22T19:03:46.802Z,2.43
2019-04-22T19:06:40.085Z,2.93
2019-04-22T19:09:05.276Z,3.47
2019-04-22T19:11:41.020Z,3.20
2019-04-22T19:19:20.639Z,2.60
2019-04-22T19:21:32.447Z,4.83
2019-04-22T19:24:05.992Z,6.50
2019-04-22T19:26:50.034Z,4.90
2019-04-22T19:29:06.874Z,2.60
2019-04-22T19:31:40.758Z,2.67
2019-04-22T19:34:14.370Z,2.50
2019-04-22T19:36:46.904Z,4.00
2019-04-22T19:39:09.125Z,2.80
2019-04-22T19:41:44.180Z,4.10
2019-04-22T19:44:17.618Z,3.97
2019-04-22T19:46:55.239Z,3.30
2019-04-22T19:49:25.375Z,3.23
2019-04-22T19:51:52.647Z,2.30
2019-04-22T19:54:15.784Z,3.20
2019-04-22T19:56:59.004Z,3.67
2019-04-22T19:59:32.228Z,3.30
2019-04-22T20:02:09.581Z,3.20
2019-04-22T20:04:52.918Z,2.87
2019-04-22T20:07:26.284Z,5.10
2019-04-22T20:09:55.504Z,2.80
2019-04-22T20:12:19.957Z,2.90
2019-04-22T20:14:54.461Z,2.90
2019-04-22T20:17:26.820Z,2.80
2019-04-22T20:20:19.610Z,2.50
2019-04-22T20:22:23.346Z,3.03
2019-04-22T20:24:47.168Z,2.40
2019-04-22T20:27:30.112Z,7.70
2019-04-22T20:30:02.490Z,2.60
2019-04-22T20:32:26.539Z,4.23
2019-04-22T20:35:06.042Z,2.20
2019-04-22T20:37:35.475Z,3.50
2019-04-22T20:40:00.253Z,3.87
2019-04-22T20:45:10.215Z,2.83
2019-04-22T20:47:32.217Z,4.27
2019-04-22T20:50:08.004Z,3.37
2019-04-22T20:52:45.110Z,4.90
2019-04-22T20:55:03.396Z,3.70
2019-04-22T20:57:40.460Z,1.80
2019-04-22T21:00:02.102Z,1.97
2019-04-22T21:02:31.281Z,2.30
2019-04-22T21:04:57.079Z,5.80
2019-04-22T21:07:32.458Z,3.97
2019-04-22T21:10:07.677Z,4.13
2019-04-22T21:12:30.342Z,3.03
2019-04-22T21:15:15.907Z,2.73
2019-04-22T21:17:42.641Z,4.00
2019-04-22T21:22:44.262Z,3.10
2019-04-22T21:25:06.186Z,3.43
2019-04-22T21:27:45.631Z,1.50
2019-04-22T21:30:12.442Z,4.80
2019-04-22T21:32:38.612Z,4.97
2019-04-22T21:35:21.779Z,7.93
2019-04-22T21:37:56.851Z,3.90
2019-04-22T21:40:18.202Z,2.30
2019-04-22T21:42:50.106Z,4.33
2019-04-22T21:45:08.026Z,1.70
2019-04-22T21:48:00.932Z,7.63
2019-04-22T21:50:37.847Z,3.10
2019-04-22T21:52:54.544Z,5.40
2019-04-22T21:55:23.841Z,8.90
2019-04-22T21:58:04.876Z,5.73
2019-04-22T22:00:41.206Z,2.87
2019-04-22T22:03:07.205Z,4.67
2019-04-22T22:05:28.922Z,6.27
2019-04-22T22:07:52.207Z,3.57
2019-04-22T22:10:36.449Z,3.63
2019-04-22T22:13:06.634Z,2.90
2019-04-22T22:15:36.278Z,2.67
2019-04-22T22:18:02.287Z,4.43
2019-04-22T22:20:45.316Z,3.37
2019-04-22T22:23:18.087Z,5.57
2019-04-22T22:25:33.521Z,3.83
2019-04-22T22:28:29.440Z,2.60
2019-04-22T22:30:48.067Z,5.10
2019-04-22T22:33:10.729Z,5.03
2019-04-22T22:35:40.499Z,2.70
2019-04-22T22:38:12.010Z,5.40
2019-04-22T22:40:26.121Z,2.20
2019-04-22T22:42:55.121Z,2.00
2019-04-22T22:45:32.818Z,3.33
2019-04-22T22:48:21.677Z,2.83
2019-04-22T22:50:43.207Z,1.93
2019-04-22T22:53:22.368Z,3.37
2019-04-22T22:55:44.339Z,2.30
2019-04-22T22:58:17.657Z,3.53
2019-04-22T23:00:44.124Z,6.17
2019-04-22T23:03:40.268Z,3.97
2019-04-22T23:05:55.408Z,2.87
2019-04-22T23:08:22.730Z,8.50
2019-04-22T23:10:57.430Z,2.80
2019-04-22T23:13:21.477Z,2.00
2019-04-22T23:15:46.645Z,6.33
2019-04-22T23:17:58.513Z,2.47
2019-04-22T23:20:32.466Z,2.97
2019-04-22T23:23:36.169Z,5.73
2019-04-22T23:25:55.053Z,3.33
2019-04-22T23:28:16.971Z,2.77
2019-04-22T23:30:58.003Z,3.50
2019-04-22T23:33:37.866Z,2.13
2019-04-22T23:36:08.724Z,2.53
2019-04-22T23:38:53.479Z,2.40
2019-04-22T23:41:41.604Z,4.53
2019-04-22T23:44:11.453Z,6.43
2019-04-22T23:46:38.475Z,3.27
2019-04-22T23:49:08.768Z,2.33
2019-04-22T23:51:39.672Z,2.97
2019-04-22T23:54:13.011Z,2.10
2019-04-22T23:56:39.723Z,2.20
2019-04-22T23:59:25.564Z,4.33
